createdAt,value
2019-04-27T00:00:39.838Z,10.73
2019-04-27T00:01:40.611Z,10.75
2019-04-27T00:02:39.835Z,10.77
2019-04-27T00:03:41.483Z,10.78
2019-04-27T00:04:40.636Z,10.77
2019-04-27T00:05:40.874Z,10.77
2019-04-27T00:06:42.994Z,10.77
2019-04-27T00:07:40.877Z,10.76
2019-04-27T00:08:43.028Z,10.75
2019-04-27T00:09:50.008Z,10.75
2019-04-27T00:10:43.633Z,10.75
2019-04-27T00:11:45.364Z,10.74
2019-04-27T00:12:42.928Z,10.74
2019-04-27T00:13:43.989Z,10.74
2019-04-27T00:14:43.951Z,10.74
2019-04-27T00:15:43.953Z,10.73
2019-04-27T00:16:46.968Z,10.72
2019-04-27T00:17:48.660Z,10.72
2019-04-27T00:18:45.534Z,10.74
2019-04-27T00:19:44.647Z,10.72
2019-04-27T00:20:44.976Z,10.73
2019-04-27T00:21:44.968Z,10.71
2019-04-27T00:22:45.538Z,10.70
2019-04-27T00:23:45.684Z,10.69
2019-04-27T00:24:45.937Z,10.69
2019-04-27T00:25:46.263Z,10.67
2019-04-27T00:26:46.630Z,10.64
2019-04-27T00:27:46.999Z,10.62
2019-04-27T00:28:47.394Z,10.60
2019-04-27T00:29:47.675Z,10.58
2019-04-27T00:30:47.943Z,10.58
2019-04-27T00:31:48.441Z,10.56
2019-04-27T00:32:48.476Z,10.54
2019-04-27T00:33:48.280Z,10.52
2019-04-27T00:34:48.665Z,10.50
2019-04-27T00:35:49.048Z,10.48
2019-04-27T00:36:48.678Z,10.45
2019-04-27T00:37:49.347Z,10.44
2019-04-27T00:38:49.108Z,10.42
2019-04-27T00:39:49.590Z,10.39
2019-04-27T00:40:50.030Z,10.39
2019-04-27T00:41:50.538Z,10.35
2019-04-27T00:42:50.287Z,10.34
2019-04-27T00:43:50.696Z,10.32
2019-04-27T00:44:50.986Z,10.31
2019-04-27T00:45:51.434Z,10.28
2019-04-27T00:46:53.304Z,10.27
2019-04-27T00:47:57.437Z,10.25
2019-04-27T00:48:53.342Z,10.23
2019-04-27T00:49:52.608Z,10.21
2019-04-27T00:50:52.908Z,10.19
2019-04-27T00:51:53.567Z,10.17
2019-04-27T00:52:53.160Z,10.15
2019-04-27T00:53:53.560Z,10.12
2019-04-27T00:54:53.938Z,10.10
2019-04-27T00:55:53.685Z,10.08
2019-04-27T00:56:54.174Z,10.06
2019-04-27T00:57:54.538Z,10.04
2019-04-27T00:58:54.476Z,10.02
2019-04-27T00:59:54.568Z,9.99
2019-04-27T01:00:54.982Z,9.98
2019-04-27T01:01:55.300Z,9.96
2019-04-27T01:02:55.217Z,9.92
2019-04-27T01:03:55.581Z,9.91
2019-04-27T01:04:55.763Z,9.89
2019-04-27T01:05:55.988Z,9.87
2019-04-27T01:06:59.436Z,9.86
2019-04-27T01:07:56.974Z,9.84
2019-04-27T01:08:57.014Z,9.83
2019-04-27T01:09:57.023Z,9.82
2019-04-27T01:10:56.824Z,9.80
2019-04-27T01:11:57.067Z,9.79
2019-04-27T01:12:57.924Z,9.79
2019-04-27T01:13:57.857Z,9.78
2019-04-27T01:14:58.092Z,9.76
2019-04-27T01:15:58.325Z,9.76
2019-04-27T01:16:59.882Z,9.75
2019-04-27T01:18:11.680Z,9.73
2019-04-27T01:18:59.103Z,9.71
2019-04-27T01:19:59.634Z,9.70
2019-04-27T01:21:00.002Z,9.70
2019-04-27T01:21:59.763Z,9.69
2019-04-27T01:23:00.186Z,9.69
2019-04-27T01:24:00.523Z,9.70
2019-04-27T01:25:00.927Z,9.70
2019-04-27T01:26:01.009Z,9.70
2019-04-27T01:27:01.467Z,9.71
2019-04-27T01:28:02.017Z,9.71
2019-04-27T01:29:02.026Z,9.71
2019-04-27T01:30:02.019Z,9.69
2019-04-27T01:31:02.391Z,9.69
2019-04-27T01:32:02.805Z,9.68
2019-04-27T01:33:03.059Z,9.68
2019-04-27T01:34:03.164Z,9.68
2019-04-27T01:35:03.218Z,9.67
2019-04-27T01:36:03.273Z,9.66
2019-04-27T01:37:03.323Z,9.66
2019-04-27T01:38:03.414Z,9.66
2019-04-27T01:39:03.701Z,9.68
2019-04-27T01:40:03.949Z,9.70
2019-04-27T01:41:04.023Z,9.68
2019-04-27T01:42:04.079Z,9.67
2019-04-27T01:43:03.824Z,9.66
2019-04-27T01:44:04.069Z,9.65
2019-04-27T01:45:04.415Z,9.64
2019-04-27T01:46:04.703Z,9.63
2019-04-27T01:47:04.952Z,9.61
2019-04-27T01:48:05.346Z,9.59
2019-04-27T01:49:05.359Z,9.58
2019-04-27T01:50:05.695Z,9.56
2019-04-27T01:51:06.160Z,9.55
2019-04-27T01:52:06.486Z,9.51
2019-04-27T01:53:08.836Z,9.48
2019-04-27T01:54:07.125Z,9.43
2019-04-27T01:55:08.420Z,9.42
2019-04-27T01:56:09.072Z,9.39
2019-04-27T01:57:07.303Z,9.38
2019-04-27T01:58:08.819Z,9.35
2019-04-27T01:59:08.654Z,9.31
2019-04-27T02:00:09.154Z,9.29
2019-04-27T02:01:09.630Z,9.24
2019-04-27T02:02:10.511Z,9.20
2019-04-27T02:03:08.988Z,9.17
2019-04-27T02:04:09.454Z,9.15
2019-04-27T02:05:09.372Z,9.13
2019-04-27T02:06:09.638Z,9.12
2019-04-27T02:07:09.900Z,9.10
2019-04-27T02:08:10.143Z,9.08
2019-04-27T02:09:10.470Z,9.05
2019-04-27T02:10:10.992Z,9.04
2019-04-27T02:11:11.118Z,9.04
2019-04-27T02:12:11.426Z,9.04
2019-04-27T02:13:11.681Z,9.04
2019-04-27T02:14:11.926Z,9.03
2019-04-27T02:15:12.478Z,9.00
2019-04-27T02:16:12.241Z,9.00
2019-04-27T02:17:12.497Z,8.99
2019-04-27T02:18:12.720Z,8.99
2019-04-27T02:19:13.016Z,8.97
2019-04-27T02:20:13.565Z,8.98
2019-04-27T02:21:13.480Z,8.98
2019-04-27T02:22:18.536Z,8.95
2019-04-27T02:23:13.947Z,8.93
2019-04-27T02:24:14.406Z,8.93
2019-04-27T02:25:15.013Z,8.92
2019-04-27T02:26:14.899Z,8.90
2019-04-27T02:27:15.143Z,8.90
2019-04-27T02:28:15.802Z,8.88
2019-04-27T02:29:15.951Z,8.86
2019-04-27T02:30:16.511Z,8.87
2019-04-27T02:31:16.388Z,8.86
2019-04-27T02:32:16.829Z,8.90
2019-04-27T02:33:20.057Z,8.89
2019-04-27T02:35:19.260Z,8.90
2019-04-27T02:36:17.045Z,8.89
2019-04-27T02:37:19.987Z,8.88
2019-04-27T02:38:20.167Z,8.88
2019-04-27T02:39:19.562Z,8.84
2019-04-27T02:40:20.491Z,8.81
2019-04-27T02:41:19.901Z,8.81
2019-04-27T02:42:20.025Z,8.77
2019-04-27T02:43:19.531Z,8.75
2019-04-27T02:44:20.033Z,8.75
2019-04-27T02:45:22.193Z,8.70
2019-04-27T02:46:20.375Z,8.67
2019-04-27T02:47:21.109Z,8.64
2019-04-27T02:48:21.040Z,8.61
2019-04-27T02:49:21.265Z,8.59
2019-04-27T02:50:21.532Z,8.56
2019-04-27T02:51:21.815Z,8.54
2019-04-27T02:52:21.738Z,8.53
2019-04-27T02:53:22.047Z,8.49
2019-04-27T02:54:22.515Z,8.44
2019-04-27T02:55:23.056Z,8.41
2019-04-27T02:56:23.091Z,8.37
2019-04-27T02:57:22.850Z,8.33
2019-04-27T02:58:23.349Z,8.30
2019-04-27T02:59:23.596Z,8.27
2019-04-27T03:00:24.042Z,8.22
2019-04-27T03:01:24.460Z,8.19
2019-04-27T03:02:24.428Z,8.17
2019-04-27T03:03:25.011Z,8.16
2019-04-27T03:04:24.923Z,8.13
2019-04-27T03:05:25.216Z,8.12
2019-04-27T03:06:25.584Z,8.08
2019-04-27T03:07:25.821Z,8.05
2019-04-27T03:08:26.043Z,8.03
2019-04-27T03:09:26.346Z,8.00
2019-04-27T03:10:26.695Z,7.97
2019-04-27T03:11:26.839Z,7.96
2019-04-27T03:12:29.405Z,7.94
2019-04-27T03:13:30.197Z,7.91
2019-04-27T03:14:32.612Z,7.91
2019-04-27T03:15:30.560Z,7.88
2019-04-27T03:16:29.654Z,7.85
2019-04-27T03:17:31.056Z,7.82
2019-04-27T03:18:32.150Z,7.80
2019-04-27T03:19:29.997Z,7.77
2019-04-27T03:20:30.233Z,7.75
2019-04-27T03:21:30.227Z,7.72
2019-04-27T03:22:30.406Z,7.71
2019-04-27T03:23:30.571Z,7.71
2019-04-27T03:24:30.751Z,7.67
2019-04-27T03:25:32.513Z,7.66
2019-04-27T03:26:31.716Z,7.68
2019-04-27T03:27:31.784Z,7.67
2019-04-27T03:28:32.269Z,7.67
2019-04-27T03:29:32.375Z,7.66
2019-04-27T03:30:36.145Z,7.66
2019-04-27T03:31:33.284Z,7.67
2019-04-27T03:32:33.550Z,7.67
2019-04-27T03:33:33.541Z,7.69
2019-04-27T03:34:34.037Z,7.70
2019-04-27T03:35:36.815Z,7.71
2019-04-27T03:36:34.883Z,7.71
2019-04-27T03:37:34.863Z,7.71
2019-04-27T03:38:35.112Z,7.72
2019-04-27T03:39:35.395Z,7.73
2019-04-27T03:40:35.662Z,7.74
2019-04-27T03:41:35.983Z,7.73
2019-04-27T03:42:37.949Z,7.70
2019-04-27T03:43:36.816Z,7.69
2019-04-27T03:44:36.638Z,7.68
2019-04-27T03:45:39.774Z,7.67
2019-04-27T03:46:39.615Z,7.66
2019-04-27T03:47:40.292Z,7.68
2019-04-27T03:48:40.454Z,7.69
2019-04-27T03:49:41.604Z,7.69
2019-04-27T03:50:40.326Z,7.70
2019-04-27T03:51:40.278Z,7.69
2019-04-27T03:52:39.757Z,7.67
2019-04-27T03:53:39.819Z,7.67
2019-04-27T03:54:40.136Z,7.67
2019-04-27T03:55:42.873Z,7.67
2019-04-27T03:56:40.167Z,7.66
2019-04-27T03:57:40.491Z,7.64
2019-04-27T03:58:40.967Z,7.64
2019-04-27T03:59:41.085Z,7.63
2019-04-27T04:00:41.537Z,7.64
2019-04-27T04:01:41.781Z,7.64
2019-04-27T04:02:42.039Z,7.66
2019-04-27T04:03:42.332Z,7.66
2019-04-27T04:04:42.746Z,7.67
2019-04-27T04:05:43.368Z,7.71
2019-04-27T04:06:43.168Z,7.74
2019-04-27T04:07:43.531Z,7.75
2019-04-27T04:08:43.797Z,7.76
2019-04-27T04:09:44.063Z,7.77
2019-04-27T04:10:44.448Z,7.78
2019-04-27T04:11:44.831Z,7.79
2019-04-27T04:12:45.096Z,7.81
2019-04-27T04:13:45.222Z,7.84
2019-04-27T04:14:45.239Z,7.87
2019-04-27T04:15:45.676Z,7.90
2019-04-27T04:16:45.705Z,7.93
2019-04-27T04:17:45.935Z,7.98
2019-04-27T04:18:46.179Z,8.02
2019-04-27T04:19:54.329Z,8.06
2019-04-27T04:21:47.275Z,8.10
2019-04-27T04:22:47.057Z,8.12
2019-04-27T04:23:49.343Z,8.14
2019-04-27T04:24:47.791Z,8.16
2019-04-27T04:25:49.923Z,8.17
2019-04-27T04:26:50.221Z,8.18
2019-04-27T04:27:50.682Z,8.19
2019-04-27T04:28:50.023Z,8.20
2019-04-27T04:29:49.398Z,8.19
2019-04-27T04:30:50.289Z,8.18
2019-04-27T04:31:50.558Z,8.19
2019-04-27T04:32:52.014Z,8.20
2019-04-27T04:33:50.628Z,8.21
2019-04-27T04:34:50.923Z,8.20
2019-04-27T04:35:51.185Z,8.22
2019-04-27T04:36:51.413Z,8.20
2019-04-27T04:37:52.987Z,8.19
2019-04-27T04:38:52.467Z,8.19
2019-04-27T04:39:53.528Z,8.19
2019-04-27T04:40:52.834Z,8.21
2019-04-27T04:41:52.740Z,8.20
2019-04-27T04:42:52.826Z,8.20
2019-04-27T04:43:52.777Z,8.25
2019-04-27T04:44:53.326Z,8.26
2019-04-27T04:45:53.331Z,8.31
2019-04-27T04:46:53.418Z,8.32
2019-04-27T04:47:53.667Z,8.36
2019-04-27T04:48:54.076Z,8.38
2019-04-27T04:50:07.371Z,8.41
2019-04-27T04:50:54.366Z,8.41
2019-04-27T04:51:54.770Z,8.41
2019-04-27T04:52:54.987Z,8.41
2019-04-27T04:53:55.242Z,8.44
2019-04-27T04:54:55.663Z,8.46
2019-04-27T04:55:55.908Z,8.46
2019-04-27T04:56:56.161Z,8.48
2019-04-27T04:57:56.631Z,8.48
2019-04-27T04:58:56.942Z,8.49
2019-04-27T04:59:59.215Z,8.47
2019-04-27T05:00:59.627Z,8.48
2019-04-27T05:02:59.546Z,8.50
2019-04-27T05:03:59.072Z,8.48
2019-04-27T05:04:59.151Z,8.45
2019-04-27T05:05:59.440Z,8.43
2019-04-27T05:06:59.671Z,8.43
2019-04-27T05:08:00.703Z,8.46
2019-04-27T05:09:00.479Z,8.46
2019-04-27T05:10:00.760Z,8.49
2019-04-27T05:11:01.138Z,8.48
2019-04-27T05:12:01.692Z,8.48
2019-04-27T05:13:01.805Z,8.49
2019-04-27T05:14:01.907Z,8.56
2019-04-27T05:15:01.675Z,8.57
2019-04-27T05:16:02.185Z,8.58
2019-04-27T05:17:02.753Z,8.66
2019-04-27T05:18:02.800Z,8.67
2019-04-27T05:19:02.867Z,8.68
2019-04-27T05:20:02.969Z,8.70
2019-04-27T05:21:03.211Z,8.79
2019-04-27T05:22:03.289Z,8.80
2019-04-27T05:23:03.870Z,8.88
2019-04-27T05:24:03.936Z,8.89
2019-04-27T05:25:03.801Z,8.95
2019-04-27T05:26:04.370Z,8.97
2019-04-27T05:27:04.442Z,9.04
2019-04-27T05:28:04.543Z,9.10
2019-04-27T05:29:04.312Z,9.16
2019-04-27T05:30:04.909Z,9.20
2019-04-27T05:31:04.978Z,9.24
2019-04-27T05:32:04.899Z,9.28
2019-04-27T05:33:05.284Z,9.29
2019-04-27T05:34:06.854Z,9.37
2019-04-27T05:35:05.922Z,9.44
2019-04-27T05:36:06.807Z,9.49
2019-04-27T05:37:06.785Z,9.56
2019-04-27T05:38:10.513Z,9.57
2019-04-27T05:39:07.399Z,9.66
2019-04-27T05:40:09.143Z,9.73
2019-04-27T05:41:08.545Z,9.79
2019-04-27T05:42:12.462Z,9.86
2019-04-27T05:43:09.223Z,9.92
2019-04-27T05:44:12.760Z,9.99
2019-04-27T05:45:09.420Z,10.02
2019-04-27T05:46:12.313Z,10.04
2019-04-27T05:47:13.113Z,10.15
2019-04-27T05:48:10.890Z,10.16
2019-04-27T05:49:10.786Z,10.25
2019-04-27T05:50:13.409Z,10.32
2019-04-27T05:51:11.279Z,10.36
2019-04-27T05:52:14.677Z,10.41
2019-04-27T05:53:11.827Z,10.49
2019-04-27T05:54:12.330Z,10.56
2019-04-27T05:55:12.736Z,10.62
2019-04-27T05:56:13.078Z,10.68
2019-04-27T05:57:13.359Z,10.75
2019-04-27T05:58:13.796Z,10.78
2019-04-27T05:59:14.912Z,10.84
2019-04-27T06:00:13.869Z,10.89
2019-04-27T06:01:14.175Z,10.88
2019-04-27T06:02:14.451Z,10.97
2019-04-27T06:03:14.735Z,11.03
2019-04-27T06:04:14.755Z,11.08
2019-04-27T06:05:15.338Z,11.12
2019-04-27T06:06:15.082Z,11.13
2019-04-27T06:07:15.303Z,11.23
2019-04-27T06:08:15.711Z,11.30
2019-04-27T06:09:16.165Z,11.35
2019-04-27T06:10:16.750Z,11.39
2019-04-27T06:11:16.737Z,11.44
2019-04-27T06:12:17.008Z,11.48
2019-04-27T06:13:18.971Z,11.54
2019-04-27T06:14:19.214Z,11.60
2019-04-27T06:15:19.699Z,11.68
2019-04-27T06:16:19.484Z,11.73
2019-04-27T06:17:19.521Z,11.78
2019-04-27T06:18:19.041Z,11.84
2019-04-27T06:19:19.431Z,11.87
2019-04-27T06:20:19.109Z,11.94
2019-04-27T06:21:19.863Z,12.00
2019-04-27T06:22:19.984Z,12.09
2019-04-27T06:23:21.048Z,12.19
2019-04-27T06:24:19.756Z,12.22
2019-04-27T06:25:21.459Z,12.26
2019-04-27T06:26:20.589Z,12.37
2019-04-27T06:27:21.162Z,12.28
2019-04-27T06:28:21.309Z,12.36
2019-04-27T06:29:22.015Z,12.33
2019-04-27T06:30:21.987Z,12.39
2019-04-27T06:31:22.258Z,12.45
2019-04-27T06:32:22.655Z,12.53
2019-04-27T06:33:32.058Z,12.61
2019-04-27T06:34:22.836Z,12.70
2019-04-27T06:35:23.455Z,12.67
2019-04-27T06:36:23.251Z,12.84
2019-04-27T06:37:23.643Z,12.90
2019-04-27T06:38:23.891Z,12.96
2019-04-27T06:39:23.900Z,13.04
2019-04-27T06:40:23.883Z,13.13
2019-04-27T06:41:24.232Z,13.23
2019-04-27T06:42:24.322Z,13.30
2019-04-27T06:43:24.315Z,13.38
2019-04-27T06:44:24.879Z,13.46
2019-04-27T06:45:25.123Z,13.58
2019-04-27T06:46:25.502Z,13.58
2019-04-27T06:47:25.804Z,13.69
2019-04-27T06:48:26.054Z,13.80
2019-04-27T06:49:26.550Z,13.85
2019-04-27T06:50:26.496Z,13.90
2019-04-27T06:51:28.532Z,14.03
2019-04-27T06:52:28.901Z,14.22
2019-04-27T06:53:29.077Z,14.36
2019-04-27T06:54:28.861Z,14.54
2019-04-27T06:55:29.108Z,14.56
2019-04-27T06:56:28.835Z,14.63
2019-04-27T06:57:29.219Z,14.64
2019-04-27T06:58:29.294Z,14.66
2019-04-27T06:59:29.468Z,14.84
2019-04-27T07:00:29.754Z,14.90
2019-04-27T07:01:30.112Z,14.98
2019-04-27T07:02:30.336Z,15.05
2019-04-27T07:04:30.948Z,15.15
2019-04-27T07:05:30.705Z,15.19
2019-04-27T07:06:31.155Z,15.37
2019-04-27T07:07:31.587Z,15.63
2019-04-27T07:08:31.864Z,15.40
2019-04-27T07:09:32.122Z,15.49
2019-04-27T07:10:32.685Z,15.65
2019-04-27T07:11:32.953Z,15.84
2019-04-27T07:12:33.238Z,15.80
2019-04-27T07:13:33.647Z,15.86
2019-04-27T07:14:33.967Z,15.92
2019-04-27T07:15:34.236Z,16.05
2019-04-27T07:16:34.599Z,15.93
2019-04-27T07:17:34.890Z,15.92
2019-04-27T07:18:35.196Z,15.76
2019-04-27T07:19:35.496Z,15.62
2019-04-27T07:20:36.047Z,15.90
2019-04-27T07:21:39.995Z,16.01
2019-04-27T07:22:35.886Z,15.81
2019-04-27T07:23:36.225Z,15.96
2019-04-27T07:24:36.168Z,16.19
2019-04-27T07:25:36.721Z,16.28
2019-04-27T07:26:36.699Z,16.00
2019-04-27T07:27:36.953Z,16.21
2019-04-27T07:28:37.206Z,16.24
2019-04-27T07:29:40.315Z,16.24
2019-04-27T07:30:38.790Z,16.33
2019-04-27T07:31:40.081Z,16.43
2019-04-27T07:32:39.161Z,16.46
2019-04-27T07:33:39.602Z,16.58
2019-04-27T07:34:39.310Z,16.72
2019-04-27T07:35:39.764Z,16.97
2019-04-27T07:36:40.069Z,17.12
2019-04-27T07:37:40.364Z,17.20
2019-04-27T07:38:40.357Z,17.31
2019-04-27T07:39:40.879Z,17.47
2019-04-27T07:40:42.046Z,17.57
2019-04-27T07:41:41.107Z,17.42
2019-04-27T07:42:41.499Z,17.24
2019-04-27T07:43:41.447Z,17.05
2019-04-27T07:44:41.891Z,16.85
2019-04-27T07:45:41.768Z,16.63
2019-04-27T07:46:42.139Z,16.25
2019-04-27T07:47:42.464Z,16.21
2019-04-27T07:48:42.808Z,16.09
2019-04-27T07:49:43.201Z,15.88
2019-04-27T07:50:43.484Z,15.73
2019-04-27T07:51:43.874Z,15.66
2019-04-27T07:52:43.858Z,15.60
2019-04-27T07:53:44.190Z,15.49
2019-04-27T07:54:44.546Z,15.44
2019-04-27T07:55:44.927Z,15.41
2019-04-27T07:56:45.082Z,15.30
2019-04-27T07:57:45.394Z,14.96
2019-04-27T07:58:45.896Z,14.99
2019-04-27T07:59:45.896Z,14.91
2019-04-27T08:00:46.163Z,14.81
2019-04-27T08:01:46.488Z,14.75
2019-04-27T08:02:48.536Z,14.64
2019-04-27T08:03:48.932Z,14.61
2019-04-27T08:04:48.487Z,14.61
2019-04-27T08:05:49.150Z,14.56
2019-04-27T08:06:49.625Z,14.49
2019-04-27T08:07:49.223Z,14.49
2019-04-27T08:08:49.313Z,14.42
2019-04-27T08:09:49.821Z,14.26
2019-04-27T08:10:50.254Z,14.06
2019-04-27T08:11:49.753Z,14.14
2019-04-27T08:12:50.012Z,14.15
2019-04-27T08:13:50.341Z,14.20
2019-04-27T08:14:50.786Z,14.19
2019-04-27T08:15:51.052Z,14.13
2019-04-27T08:16:51.312Z,14.11
2019-04-27T08:17:51.709Z,13.96
2019-04-27T08:18:52.156Z,14.05
2019-04-27T08:19:52.566Z,14.06
2019-04-27T08:20:53.105Z,14.07
2019-04-27T08:21:52.923Z,14.08
2019-04-27T08:22:53.421Z,14.09
2019-04-27T08:23:53.178Z,14.10
2019-04-27T08:24:53.737Z,14.10
2019-04-27T08:25:53.986Z,14.09
2019-04-27T08:26:54.366Z,14.07
2019-04-27T08:27:54.470Z,14.06
2019-04-27T08:28:55.073Z,14.03
2019-04-27T08:29:55.099Z,13.93
2019-04-27T08:30:55.290Z,13.92
2019-04-27T08:31:55.726Z,13.88
2019-04-27T08:32:55.886Z,13.86
2019-04-27T08:33:56.203Z,13.73
2019-04-27T08:34:56.482Z,13.71
2019-04-27T08:35:56.723Z,13.71
2019-04-27T08:36:58.456Z,13.74
2019-04-27T08:37:59.199Z,13.74
2019-04-27T08:38:58.863Z,13.70
2019-04-27T08:39:59.208Z,13.69
2019-04-27T08:40:59.233Z,13.70
2019-04-27T08:42:59.263Z,13.60
2019-04-27T08:43:58.906Z,13.61
2019-04-27T08:44:59.515Z,13.60
2019-04-27T08:46:00.352Z,13.57
2019-04-27T08:46:59.873Z,13.57
2019-04-27T08:48:00.247Z,13.51
2019-04-27T08:49:00.554Z,13.48
2019-04-27T08:50:01.181Z,13.49
2019-04-27T08:51:01.289Z,13.39
2019-04-27T08:52:01.929Z,13.39
2019-04-27T08:53:01.539Z,13.40
2019-04-27T08:54:02.088Z,13.36
2019-04-27T08:55:02.171Z,13.37
2019-04-27T08:56:02.546Z,13.37
2019-04-27T08:57:02.639Z,13.36
2019-04-27T08:58:02.762Z,13.34
2019-04-27T08:59:02.851Z,13.33
2019-04-27T09:00:02.847Z,13.32
2019-04-27T09:01:03.220Z,13.25
2019-04-27T09:02:03.371Z,13.22
2019-04-27T09:03:03.380Z,13.20
2019-04-27T09:04:03.428Z,13.13
2019-04-27T09:05:03.470Z,13.00
2019-04-27T09:06:04.047Z,12.97
2019-04-27T09:07:04.518Z,12.97
2019-04-27T09:08:04.871Z,12.94
2019-04-27T09:09:05.031Z,12.93
2019-04-27T09:10:04.987Z,12.92
2019-04-27T09:11:05.513Z,12.87
2019-04-27T09:12:05.449Z,12.86
2019-04-27T09:13:05.877Z,12.76
2019-04-27T09:14:06.313Z,12.75
2019-04-27T09:15:07.105Z,12.75
2019-04-27T09:16:07.165Z,12.77
2019-04-27T09:17:07.172Z,12.72
2019-04-27T09:18:08.996Z,12.67
2019-04-27T09:19:08.806Z,12.66
2019-04-27T09:20:09.547Z,12.66
2019-04-27T09:21:10.474Z,12.70
2019-04-27T09:22:15.988Z,12.67
2019-04-27T09:23:09.865Z,12.69
2019-04-27T09:24:09.491Z,12.74
2019-04-27T09:25:10.587Z,12.76
2019-04-27T09:26:11.118Z,12.79
2019-04-27T09:27:10.061Z,12.84
2019-04-27T09:28:09.812Z,12.89
2019-04-27T09:29:10.048Z,12.99
2019-04-27T09:30:10.429Z,13.11
2019-04-27T09:31:10.800Z,13.16
2019-04-27T09:32:11.225Z,13.31
2019-04-27T09:33:11.656Z,13.39
2019-04-27T09:34:12.765Z,13.48
2019-04-27T09:35:12.149Z,13.59
2019-04-27T09:36:12.174Z,13.69
2019-04-27T09:37:11.983Z,13.85
2019-04-27T09:38:12.248Z,13.94
2019-04-27T09:39:12.570Z,14.03
2019-04-27T09:40:13.158Z,14.10
2019-04-27T09:41:12.910Z,14.18
2019-04-27T09:42:13.220Z,14.15
2019-04-27T09:43:13.713Z,14.07
2019-04-27T09:44:15.986Z,14.20
2019-04-27T09:45:15.902Z,14.26
2019-04-27T09:46:15.709Z,14.25
2019-04-27T09:47:16.417Z,14.33
2019-04-27T09:48:15.938Z,14.49
2019-04-27T09:49:15.789Z,14.66
2019-04-27T09:50:16.213Z,14.82
2019-04-27T09:51:16.235Z,15.05
2019-04-27T09:52:24.304Z,15.14
2019-04-27T09:53:16.164Z,15.52
2019-04-27T09:54:16.908Z,15.44
2019-04-27T09:55:17.175Z,15.49
2019-04-27T09:56:17.609Z,15.62
2019-04-27T09:57:17.931Z,15.89
2019-04-27T09:58:18.729Z,16.37
2019-04-27T09:59:18.754Z,16.57
2019-04-27T10:00:19.000Z,16.69
2019-04-27T10:01:19.250Z,16.61
2019-04-27T10:02:19.876Z,16.61
2019-04-27T10:03:19.618Z,16.46
2019-04-27T10:04:19.945Z,16.35
2019-04-27T10:05:20.562Z,16.43
2019-04-27T10:06:20.569Z,16.56
2019-04-27T10:07:20.362Z,16.68
2019-04-27T10:08:20.635Z,16.79
2019-04-27T10:09:20.898Z,16.81
2019-04-27T10:10:21.371Z,16.96
2019-04-27T10:11:21.725Z,16.98
2019-04-27T10:12:21.983Z,17.04
2019-04-27T10:13:22.237Z,17.07
2019-04-27T10:14:22.667Z,17.12
2019-04-27T10:15:22.983Z,16.99
2019-04-27T10:16:23.334Z,17.14
2019-04-27T10:17:23.773Z,17.32
2019-04-27T10:18:24.028Z,17.44
2019-04-27T10:19:30.740Z,17.39
2019-04-27T10:20:25.016Z,17.34
2019-04-27T10:21:26.409Z,17.50
2019-04-27T10:22:39.936Z,17.36
2019-04-27T10:23:25.225Z,17.22
2019-04-27T10:24:25.876Z,17.21
2019-04-27T10:25:25.678Z,17.36
2019-04-27T10:26:26.024Z,17.35
2019-04-27T10:27:26.236Z,17.11
2019-04-27T10:28:26.626Z,17.10
2019-04-27T10:29:26.977Z,17.03
2019-04-27T10:30:27.212Z,16.92
2019-04-27T10:31:27.565Z,16.92
2019-04-27T10:32:28.069Z,16.81
2019-04-27T10:33:28.075Z,16.76
2019-04-27T10:34:28.483Z,16.76
2019-04-27T10:35:28.741Z,16.61
2019-04-27T10:36:29.074Z,16.65
2019-04-27T10:37:29.435Z,16.56
2019-04-27T10:38:30.010Z,16.48
2019-04-27T10:39:30.082Z,16.42
2019-04-27T10:40:30.342Z,16.33
2019-04-27T10:41:30.762Z,16.21
2019-04-27T10:42:31.000Z,16.04
2019-04-27T10:43:31.235Z,15.87
2019-04-27T10:44:31.607Z,15.54
2019-04-27T10:45:32.057Z,15.44
2019-04-27T10:46:32.295Z,15.37
2019-04-27T10:47:32.744Z,15.23
2019-04-27T10:48:32.971Z,15.23
2019-04-27T10:49:33.445Z,15.13
2019-04-27T10:50:33.963Z,14.93
2019-04-27T10:51:33.721Z,14.90
2019-04-27T10:52:33.994Z,14.98
2019-04-27T10:53:35.626Z,15.00
2019-04-27T10:54:34.679Z,15.00
2019-04-27T10:55:36.322Z,14.96
2019-04-27T10:56:36.156Z,14.93
2019-04-27T10:57:35.701Z,14.80
2019-04-27T10:58:35.960Z,14.72
2019-04-27T10:59:36.222Z,14.65
2019-04-27T11:00:36.855Z,14.59
2019-04-27T11:01:36.766Z,14.53
2019-04-27T11:02:37.113Z,14.40
2019-04-27T11:03:37.394Z,14.39
2019-04-27T11:04:37.802Z,14.31
2019-04-27T11:05:38.248Z,14.37
2019-04-27T11:06:38.594Z,14.40
2019-04-27T11:07:38.528Z,14.40
2019-04-27T11:08:38.894Z,14.40
2019-04-27T11:09:39.328Z,14.40
2019-04-27T11:10:39.572Z,14.33
2019-04-27T11:11:39.451Z,14.28
2019-04-27T11:12:39.885Z,14.23
2019-04-27T11:13:40.144Z,14.19
2019-04-27T11:14:40.581Z,14.11
2019-04-27T11:15:40.818Z,14.08
2019-04-27T11:16:41.051Z,14.01
2019-04-27T11:17:41.308Z,13.92
2019-04-27T11:18:41.319Z,13.86
2019-04-27T11:19:41.762Z,13.77
2019-04-27T11:20:42.047Z,13.72
2019-04-27T11:21:42.383Z,13.66
2019-04-27T11:22:42.899Z,13.65
2019-04-27T11:23:43.150Z,13.46
2019-04-27T11:24:43.605Z,13.24
2019-04-27T11:25:43.851Z,13.22
2019-04-27T11:26:44.416Z,13.18
2019-04-27T11:27:44.973Z,13.04
2019-04-27T11:28:46.334Z,13.06
2019-04-27T11:29:46.230Z,13.06
2019-04-27T11:30:45.046Z,13.04
2019-04-27T11:31:46.557Z,13.30
2019-04-27T11:32:45.878Z,13.47
2019-04-27T11:33:46.498Z,13.57
2019-04-27T11:34:46.564Z,13.60
2019-04-27T11:35:47.002Z,13.68
2019-04-27T11:36:46.889Z,13.75
2019-04-27T11:37:46.921Z,13.86
2019-04-27T11:38:47.296Z,13.97
2019-04-27T11:39:47.715Z,14.05
2019-04-27T11:40:48.229Z,14.06
2019-04-27T11:41:48.330Z,14.18
2019-04-27T11:42:48.361Z,14.23
2019-04-27T11:43:48.623Z,14.22
2019-04-27T11:44:48.848Z,14.22
2019-04-27T11:45:49.153Z,14.21
2019-04-27T11:46:49.421Z,14.22
2019-04-27T11:47:49.686Z,14.26
2019-04-27T11:48:50.018Z,14.33
2019-04-27T11:49:50.465Z,14.36
2019-04-27T11:50:50.945Z,14.37
2019-04-27T11:51:51.233Z,14.44
2019-04-27T11:52:51.529Z,14.56
2019-04-27T11:53:51.432Z,14.61
2019-04-27T11:54:51.674Z,14.65
2019-04-27T11:55:51.978Z,14.66
2019-04-27T11:56:52.436Z,14.71
2019-04-27T11:57:52.781Z,14.76
2019-04-27T11:58:53.287Z,14.77
2019-04-27T11:59:53.321Z,14.77
2019-04-27T12:00:53.156Z,14.90
2019-04-27T12:01:53.585Z,15.01
2019-04-27T12:02:53.827Z,15.05
2019-04-27T12:03:55.621Z,15.09
2019-04-27T12:04:54.326Z,15.01
2019-04-27T12:05:58.118Z,14.97
2019-04-27T12:06:56.483Z,15.11
2019-04-27T12:07:56.131Z,15.03
2019-04-27T12:08:55.846Z,15.13
2019-04-27T12:09:56.087Z,15.14
2019-04-27T12:10:56.337Z,15.23
2019-04-27T12:12:06.784Z,15.29
2019-04-27T12:12:57.251Z,15.34
2019-04-27T12:13:57.728Z,15.40
2019-04-27T12:14:58.098Z,15.42
2019-04-27T12:15:58.584Z,15.33
2019-04-27T12:16:58.983Z,15.27
2019-04-27T12:17:59.029Z,15.38
2019-04-27T12:18:59.334Z,15.44
2019-04-27T12:19:59.770Z,15.47
2019-04-27T12:20:59.931Z,15.54
2019-04-27T12:21:59.971Z,15.44
2019-04-27T12:22:59.903Z,15.68
2019-04-27T12:24:00.336Z,15.83
2019-04-27T12:25:00.201Z,15.96
2019-04-27T12:26:00.568Z,16.38
2019-04-27T12:27:01.164Z,16.23
2019-04-27T12:28:01.465Z,15.89
2019-04-27T12:29:01.693Z,15.81
2019-04-27T12:30:02.260Z,15.71
2019-04-27T12:31:02.595Z,15.43
2019-04-27T12:32:02.838Z,15.22
2019-04-27T12:33:02.903Z,15.28
2019-04-27T12:34:02.975Z,15.26
2019-04-27T12:35:02.735Z,15.27
2019-04-27T12:36:03.326Z,15.26
2019-04-27T12:37:07.130Z,15.23
2019-04-27T12:38:03.743Z,15.03
2019-04-27T12:39:05.537Z,15.12
2019-04-27T12:40:05.917Z,15.20
2019-04-27T12:41:06.637Z,15.26
2019-04-27T12:42:06.090Z,15.38
2019-04-27T12:43:05.402Z,15.46
2019-04-27T12:44:07.129Z,15.54
2019-04-27T12:45:06.358Z,15.60
2019-04-27T12:46:06.106Z,15.71
2019-04-27T12:47:06.434Z,15.73
2019-04-27T12:48:06.957Z,15.81
2019-04-27T12:49:07.107Z,15.86
2019-04-27T12:50:07.160Z,15.79
2019-04-27T12:51:07.476Z,15.84
2019-04-27T12:52:08.040Z,15.97
2019-04-27T12:53:07.782Z,16.08
2019-04-27T12:54:07.783Z,16.14
2019-04-27T12:55:08.196Z,16.20
2019-04-27T12:56:08.377Z,16.22
2019-04-27T12:57:08.296Z,16.71
2019-04-27T12:58:08.947Z,17.35
2019-04-27T12:59:09.029Z,17.88
2019-04-27T13:00:09.452Z,17.72
2019-04-27T13:01:09.922Z,17.85
2019-04-27T13:02:10.137Z,17.82
2019-04-27T13:03:10.391Z,18.05
2019-04-27T13:04:10.847Z,18.20
2019-04-27T13:05:11.135Z,18.80
2019-04-27T13:06:11.107Z,19.37
2019-04-27T13:07:11.362Z,19.05
2019-04-27T13:08:11.596Z,19.36
2019-04-27T13:09:11.937Z,18.95
2019-04-27T13:10:12.172Z,18.72